Time;durP1;ratioP1;P1;durP2;ratioP2;P2;SDS_P1;SDS_P2;PMS_P1;PMS_P2;Temp;Humidity;BMP_temperature;BMP_pressure;BME280_temperature;BME280_humidity;BME280_pressure;Samples;Min_cycle;Max_cycle;Signal;HPM_P1;HPM_P2
2022/08/09 00:07:54;;;;;;;3.9;8;;;;;;;16.2;100;99300;;;;
2022/08/09 00:18:54;;;;;;;3.9;8;;;;;;;15.8;100;99290;;;;
2022/08/09 00:29:54;;;;;;;4.5;6.8;;;;;;;15.6;100;99300;;;;
2022/08/09 00:40:54;;;;;;;4.5;6.8;;;;;;;15.3;100;99300;;;;
2022/08/09 00:50:53;;;;;;;4.5;6.8;;;;;;;15.1;100;99300;;;;
2022/08/09 01:01:53;;;;;;;4.3;7.3;;;;;;;15;100;99310;;;;
2022/08/09 01:11:54;;;;;;;4.3;7.3;;;;;;;15;100;99310;;;;
2022/08/09 01:22:54;;;;;;;4.3;7.3;;;;;;;15.1;100;99310;;;;
2022/08/09 01:33:53;;;;;;;4.1;7.4;;;;;;;15.2;100;99310;;;;
2022/08/09 01:43:54;;;;;;;4.1;7.4;;;;;;;14.9;100;99310;;;;
2022/08/09 01:54:54;;;;;;;4.1;7.4;;;;;;;15;100;99310;;;;
2022/08/09 02:04:54;;;;;;;4.6;9.4;;;;;;;15;100;99310;;;;
2022/08/09 02:14:54;;;;;;;4.6;9.4;;;;;;;15.1;100;99320;;;;
2022/08/09 02:25:54;;;;;;;4.6;9.4;;;;;;;15.2;100;99320;;;;
2022/08/09 02:36:53;;;;;;;4.4;8.2;;;;;;;15.2;100;99320;;;;
2022/08/09 02:46:54;;;;;;;4.4;8.2;;;;;;;15;100;99320;;;;
2022/08/09 02:57:54;;;;;;;4.4;8.2;;;;;;;14.9;100;99330;;;;
2022/08/09 03:07:54;;;;;;;4;8.6;;;;;;;14.8;100;99340;;;;
2022/08/09 03:17:54;;;;;;;4;8.6;;;;;;;14.9;100;99350;;;;
2022/08/09 03:28:57;;;;;;;4;8.6;;;;;;;14.8;100;99340;;;;
2022/08/09 03:38:54;;;;;;;4.6;9.9;;;;;;;14.7;100;99340;;;;
2022/08/09 03:48:54;;;;;;;4.6;9.9;;;;;;;14.9;100;99350;;;;
2022/08/09 03:59:54;;;;;;;4.7;10.1;;;;;;;15.1;100;99350;;;;
2022/08/09 04:10:54;;;;;;;4.7;10.1;;;;;;;15.6;100;99350;;;;
2022/08/09 04:20:54;;;;;;;4.7;10.1;;;;;;;16;100;99360;;;;
2022/08/09 04:30:54;;;;;;;4.5;7.2;;;;;;;16.4;100;99370;;;;
2022/08/09 04:41:54;;;;;;;4.5;7.2;;;;;;;16.9;100;99370;;;;
2022/08/09 04:51:54;;;;;;;4.5;7.2;;;;;;;17.3;100;99370;;;;
2022/08/09 05:01:54;;;;;;;4.3;10.1;;;;;;;17.4;100;99360;;;;
2022/08/09 05:11:54;;;;;;;4.3;10.1;;;;;;;17.6;100;99380;;;;
2022/08/09 05:22:54;;;;;;;4.3;10.1;;;;;;;17.8;100;99380;;;;
2022/08/09 05:32:54;;;;;;;4.1;8.8;;;;;;;18;100;99390;;;;
2022/08/09 05:43:54;;;;;;;4.1;8.8;;;;;;;18.2;100;99380;;;;
2022/08/09 05:53:54;;;;;;;4.1;8.8;;;;;;;18;100;99400;;;;
2022/08/09 06:04:54;;;;;;;4.5;8.6;;;;;;;17.9;100;99390;;;;
2022/08/09 06:14:54;;;;;;;4.5;8.6;;;;;;;18.2;100;99390;;;;
2022/08/09 06:24:54;;;;;;;4.5;8.6;;;;;;;18.6;100;99400;;;;
2022/08/09 06:34:54;;;;;;;3.4;8.4;;;;;;;18.7;100;99400;;;;
2022/08/09 06:45:54;;;;;;;3.4;8.4;;;;;;;19;100;99400;;;;
2022/08/09 06:55:54;;;;;;;3.4;8.4;;;;;;;19.4;100;99400;;;;
2022/08/09 07:06:54;;;;;;;2.4;6.3;;;;;;;19.6;100;99410;;;;
2022/08/09 07:16:54;;;;;;;2.4;6.3;;;;;;;19.8;100;99420;;;;
2022/08/09 07:26:54;;;;;;;2.4;6.3;;;;;;;20;100;99430;;;;
2022/08/09 07:37:54;;;;;;;2.7;5.6;;;;;;;19.9;100;99430;;;;
2022/08/09 07:48:54;;;;;;;2.7;5.6;;;;;;;20.3;100;99430;;;;
2022/08/09 07:59:54;;;;;;;2.1;6.2;;;;;;;21;100;99440;;;;
2022/08/09 08:10:54;;;;;;;2.1;6.2;;;;;;;21.2;100;99440;;;;
2022/08/09 08:20:54;;;;;;;2.1;6.2;;;;;;;21.3;100;99440;;;;
2022/08/09 08:31:54;;;;;;;2;5.3;;;;;;;21.7;99;99450;;;;
2022/08/09 08:42:54;;;;;;;2;5.3;;;;;;;22;94.9;99450;;;;
2022/08/09 08:53:54;;;;;;;2;5.3;;;;;;;21.4;97.7;99450;;;;
2022/08/09 09:03:54;;;;;;;2.1;6.4;;;;;;;22.4;93.8;99450;;;;
2022/08/09 09:14:54;;;;;;;2.1;6.4;;;;;;;22.4;94.9;99440;;;;
2022/08/09 09:25:54;;;;;;;2.1;6.4;;;;;;;23.7;86.9;99450;;;;
2022/08/09 09:36:54;;;;;;;1.3;4.5;;;;;;;24.4;87.5;99440;;;;
2022/08/09 09:47:54;;;;;;;1.3;4.5;;;;;;;24;86.8;99450;;;;
2022/08/09 09:58:54;;;;;;;1.3;4.5;;;;;;;24;84;99450;;;;
2022/08/09 10:09:54;;;;;;;1.8;5.4;;;;;;;24.4;87.4;99450;;;;
2022/08/09 10:19:54;;;;;;;1.8;5.4;;;;;;;24.8;92.1;99440;;;;
2022/08/09 10:30:54;;;;;;;1.4;4.1;;;;;;;24.6;89.7;99430;;;;
2022/08/09 10:40:54;;;;;;;1.4;4.1;;;;;;;24.7;87.2;99440;;;;
2022/08/09 10:51:11;;;;;;;1.4;4.1;;;;;;;25.3;85.8;99440;;;;
2022/08/09 11:00:54;;;;;;;1.7;4.2;;;;;;;24.4;90.2;99430;;;;
2022/08/09 11:11:54;;;;;;;1.7;4.2;;;;;;;25.3;84.5;99430;;;;
2022/08/09 11:21:54;;;;;;;1.7;4.2;;;;;;;24.9;86.3;99420;;;;
2022/08/09 11:32:54;;;;;;;1.4;3.1;;;;;;;24.4;88.2;99410;;;;
2022/08/09 11:42:54;;;;;;;1.4;3.1;;;;;;;25.2;86.6;99400;;;;
2022/08/09 11:53:54;;;;;;;1.4;3.1;;;;;;;25;87.5;99400;;;;
2022/08/09 12:04:54;;;;;;;1.7;5.6;;;;;;;24.1;89;99400;;;;
2022/08/09 12:14:54;;;;;;;1.7;5.6;;;;;;;24.7;88.4;99390;;;;
2022/08/09 12:25:54;;;;;;;1.7;5.6;;;;;;;25.1;86.2;99390;;;;
2022/08/09 12:36:54;;;;;;;1.3;4.5;;;;;;;25.8;77.9;99390;;;;
2022/08/09 12:47:54;;;;;;;1.3;4.5;;;;;;;26.5;81.6;99380;;;;
2022/08/09 12:57:54;;;;;;;1.3;4.5;;;;;;;25.8;76.9;99370;;;;
2022/08/09 13:08:54;;;;;;;1.3;3;;;;;;;25.6;79.2;99370;;;;
2022/08/09 13:19:54;;;;;;;1.3;3;;;;;;;25.4;79.3;99370;;;;
2022/08/09 13:29:55;;;;;;;1.4;3.5;;;;;;;25.6;77.8;99360;;;;
2022/08/09 13:39:54;;;;;;;1.4;3.5;;;;;;;26;72.8;99350;;;;
2022/08/09 13:50:54;;;;;;;1.4;3.5;;;;;;;25.7;70.6;99350;;;;
2022/08/09 14:01:54;;;;;;;1.4;3.6;;;;;;;25.7;72.3;99350;;;;
2022/08/09 14:11:54;;;;;;;1.4;3.6;;;;;;;26.7;71.7;99350;;;;
2022/08/09 14:22:54;;;;;;;1.4;3.6;;;;;;;26.8;67;99350;;;;
2022/08/09 14:33:54;;;;;;;1.5;4.8;;;;;;;27.4;66.5;99350;;;;
2022/08/09 14:43:54;;;;;;;1.5;4.8;;;;;;;27.3;62.1;99350;;;;
2022/08/09 14:54:54;;;;;;;1.5;4.8;;;;;;;27.6;62.1;99340;;;;
2022/08/09 15:04:54;;;;;;;1.2;4.6;;;;;;;27.1;61.8;99340;;;;
2022/08/09 15:15:54;;;;;;;1.2;4.6;;;;;;;25.5;64.4;99350;;;;
2022/08/09 15:25:56;;;;;;;1.2;4.6;;;;;;;25.2;67.7;99350;;;;
2022/08/09 15:36:54;;;;;;;1.1;3.1;;;;;;;24.5;70.3;99360;;;;
2022/08/09 15:46:54;;;;;;;1.1;3.1;;;;;;;24;71.4;99350;;;;
2022/08/09 15:56:54;;;;;;;1.1;3.1;;;;;;;23.7;74.6;99350;;;;
2022/08/09 16:07:54;;;;;;;1.3;4.5;;;;;;;23.5;75;99350;;;;
2022/08/09 16:17:54;;;;;;;1.3;4.5;;;;;;;23.6;76;99350;;;;
2022/08/09 16:28:54;;;;;;;1.3;4.5;;;;;;;23.6;75.6;99350;;;;
2022/08/09 16:39:54;;;;;;;1.2;4.8;;;;;;;23.5;76.6;99350;;;;
2022/08/09 16:50:54;;;;;;;1.2;4.8;;;;;;;23.2;77.4;99350;;;;
2022/08/09 17:01:54;;;;;;;1.4;5.9;;;;;;;23.1;76.7;99360;;;;
2022/08/09 17:11:54;;;;;;;1.4;5.9;;;;;;;23;76.1;99360;;;;
2022/08/09 17:21:55;;;;;;;1.4;5.9;;;;;;;23.3;76;99370;;;;
2022/08/09 17:32:54;;;;;;;1.3;3.2;;;;;;;23.9;72.1;99380;;;;
2022/08/09 17:42:54;;;;;;;1.3;3.2;;;;;;;22.9;75.8;99380;;;;
2022/08/09 17:53:55;;;;;;;1.3;3.2;;;;;;;22.2;78.8;99380;;;;
2022/08/09 18:03:54;;;;;;;1.6;4.5;;;;;;;21.6;80.5;99390;;;;
2022/08/09 18:14:55;;;;;;;1.6;4.5;;;;;;;20.8;87.4;99410;;;;
2022/08/09 18:25:54;;;;;;;1.6;4.5;;;;;;;20.3;87.6;99410;;;;
2022/08/09 18:35:54;;;;;;;2.4;8.9;;;;;;;19.8;90.1;99420;;;;
2022/08/09 18:45:54;;;;;;;2.4;8.9;;;;;;;19.4;93.7;99430;;;;
2022/08/09 18:56:54;;;;;;;2.4;8.9;;;;;;;19.1;96.4;99440;;;;
2022/08/09 19:07:54;;;;;;;3.5;9.1;;;;;;;18.9;98.3;99440;;;;
2022/08/09 19:17:54;;;;;;;3.5;9.1;;;;;;;18.7;99.8;99450;;;;
2022/08/09 19:28:54;;;;;;;3.5;9.1;;;;;;;18.5;100;99440;;;;
2022/08/09 19:38:54;;;;;;;4.1;7.7;;;;;;;18.3;100;99450;;;;
2022/08/09 19:49:54;;;;;;;4.1;7.7;;;;;;;18.1;100;99450;;;;
2022/08/09 20:00:54;;;;;;;4.5;9;;;;;;;17.7;100;99460;;;;
2022/08/09 20:10:54;;;;;;;4.5;9;;;;;;;17.1;100;99450;;;;
2022/08/09 20:20:54;;;;;;;4.5;9;;;;;;;16.9;100;99460;;;;
2022/08/09 20:30:54;;;;;;;4.7;11.5;;;;;;;16.4;100;99460;;;;
2022/08/09 20:40:54;;;;;;;4.7;11.5;;;;;;;16.3;100;99460;;;;
2022/08/09 20:50:54;;;;;;;4.7;11.5;;;;;;;16.1;100;99470;;;;
2022/08/09 21:01:54;;;;;;;3.7;7.5;;;;;;;16;100;99470;;;;
2022/08/09 21:12:54;;;;;;;3.7;7.5;;;;;;;15.9;100;99460;;;;
2022/08/09 21:22:54;;;;;;;3.7;7.5;;;;;;;15.7;100;99470;;;;
2022/08/09 21:32:54;;;;;;;3.6;7;;;;;;;15.5;100;99470;;;;
2022/08/09 21:43:54;;;;;;;3.6;7;;;;;;;15.2;100;99470;;;;
2022/08/09 21:53:54;;;;;;;3.6;7;;;;;;;15;100;99470;;;;
2022/08/09 22:04:54;;;;;;;3.6;8.7;;;;;;;14.8;100;99470;;;;
2022/08/09 22:14:54;;;;;;;3.6;8.7;;;;;;;14.6;100;99460;;;;
2022/08/09 22:25:54;;;;;;;3.6;8.7;;;;;;;14.4;100;99460;;;;
2022/08/09 22:36:54;;;;;;;3.4;7;;;;;;;14.1;100;99450;;;;
2022/08/09 22:46:54;;;;;;;3.4;7;;;;;;;14;100;99450;;;;
2022/08/09 22:57:54;;;;;;;3.4;7;;;;;;;13.9;100;99450;;;;
2022/08/09 23:08:58;;;;;;;4;8.5;;;;;;;13.8;100;99460;;;;
2022/08/09 23:17:54;;;;;;;4;8.5;;;;;;;13.8;100;99450;;;;
2022/08/09 23:28:54;;;;;;;4;8.5;;;;;;;13.6;100;99460;;;;
2022/08/09 23:39:54;;;;;;;4.4;8.5;;;;;;;13.5;100;99460;;;;
2022/08/09 23:49:54;;;;;;;4.4;8.5;;;;;;;13.4;100;99460;;;;
